Farmville, VA

1:35 PM EST on February 13, 2016 (GMT -0500)
Hampden-Sydney College | | Change Station
CLOSE
Current Station
Personal Weather Station
Location: Hampden-Sydney, VA
Elevation: 510 ft
Nearby Weather Stations

Elev 510 ft 37.24 °N, 78.46 °W | Updated 11 seconds ago

Partly Cloudy
Partly Cloudy
27.8 °F
Feels Like 20 °F
N
7.0
Wind Variable Wind from NNE
Gusts 22.0 mph

Today
High -- | Low -- °F
--% Chance of Precip.
Yesterday
High -- | Low -- °F
Precip. -- in
Pressure 30.26 in
Visibility 10.0 miles
Clouds Clear
Windchill 20 °F
Dew Point -3 °F
Humidity 25%
Rainfall 0.00 in
Snow Depth Not available.
7:05 AM 5:50 PM
Waxing Crescent, 33% visible
METAR KFVX 131815Z AUTO 29008G14KT 10SM CLR M01/M21 A3026 RMK AO2 T10111215
Pressure 30.26 in
Visibility 10.0 miles
Clouds Clear
Windchill 20 °F
Dew Point -3 °F
Humidity 25%
Rainfall 0.00 in
Snow Depth Not available.
7:05 AM 5:50 PM
Waxing Crescent, 33% visible
METAR KFVX 131815Z AUTO 29008G14KT 10SM CLR M01/M21 A3026 RMK AO2 T10111215

10-Day Weather Forecast

Almanac

Astronomy

Feb. 13, 2016 Rise Set
Actual Time
Civil Twilight
Nautical Twilight
Astronomical Twilight
Moon
Length of Visible Light
Length of Day
Tomorrow will be .
, % of the Moon is Illuminated

Today's Extremes

State Highs State Lows

Community

WunderPhotos

Upload Photos

1,892,633 photos uploaded!

WunderBlog® & News

Nearby

Air Quality

  Air Quality AQ Index Pollutant
Not available.

Snow Depth

Station Depth Elevation

Earthquake Activity

City Distance Mag. Time & Date
Minimum magnitude displayed is 2.5.

Coastal Water Temperatures

Place Temperature

Stations

Nearby Weather Stations

Station Location Temp. Windchill Dew Point Humidity Wind Precip. Elev Updated Type
                   

Watches & Warnings

There are currently no watches in effect.